Hidden Valley, Valles Caldera, New Mexico Weather observations

Data are for 10 minute period ending at time listed.
 Day   Time   Solar   Ave.   Ave.  Ave.  Vector  Max.   Baro.   Total    
  of    of     Rad.   Air    Rel.  Wind   Wind   Wind  Press.  Precip.   
Year   Day            Temp.  Hum.  Speed  Dir.   Gust                    
2014   (MST)  Kw/m2    F      %     mph   deg.    mph    mb.     in.     
-------------------------------------------------------------------------
 109    3:30   0.00   33.6    98    0.2   224     0.9   746.8    0.00 
 109    3:40   0.00   33.1    98    0.7   228     1.4   746.8    0.00 
 109    3:50   0.00   31.8    98    0.3   233     0.8   746.9    0.00 
 109    4:00   0.00   30.6    98    0.6    14     1.5   747.0    0.00 
 109    4:10   0.00   28.7    98    0.3   315     1.6   747.0    0.00 
 109    4:20   0.00   28.6    99    0.5    34     1.4   747.0    0.00 
 109    4:30   0.00   27.3    99    0.1   335     0.9   747.0    0.00 
 109    4:40   0.00   26.5    99    0.0   351     0.5   747.1    0.00 
 109    4:50   0.00   26.1    99    0.2    42     0.6   747.1    0.00 
 109    5:00   0.00   25.0    99    0.5    10     0.9   747.2    0.00 
 109    5:10   0.00   23.8    98    0.1    24     0.6   747.3    0.00 
 109    5:20   0.00   24.1    99    0.2   225     0.6   747.3    0.00 
 109    5:30   0.00   23.9    98    0.0    39     0.4   747.4    0.00 
 109    5:40   0.01   24.4    99    0.4    49     0.8   747.4    0.00 
 109    5:50   0.01   24.3    99    0.6   358     0.9   747.5    0.00 
 109    6:00   0.02   24.9    99    0.8   348     1.3   747.8    0.00 
 109    6:10   0.05   25.5   100    0.2     0     0.6   747.8    0.00 
 109    6:20   0.08   26.3   100    0.4    33     0.8   747.8    0.00 
 109    6:30   0.10   27.0   100    0.3   110     0.9   747.9    0.00 
 109    6:40   0.14   28.0   100    0.3   143     0.8   747.9    0.00 
 109    6:50   0.24   29.4   100    0.2   240     0.8   747.9    0.00 
 109    7:00   0.33   31.5    99    0.0    87     0.4   747.8    0.00 
 109    7:10   0.36   33.1    98    0.9    15     1.4   747.8    0.00 
 109    7:20   0.33   34.2    97    0.5    70     1.1   747.8    0.00 
 109    7:30   0.43   36.2    97    0.6    16     1.2   747.8    0.00 
 109    7:40   0.40   38.2    94    0.4   110     1.3   747.8    0.00 
 109    7:50   0.43   39.6    92    0.4    64     1.2   747.7    0.00 
 109    8:00   0.45   41.0    90    0.6    49     1.2   747.6    0.00 
 109    8:10   0.57   42.7    83    1.1    48     2.0   747.5    0.00 
 109    8:20   0.61   43.9    81    0.9    36     1.7   747.4    0.00 
 109    8:30   0.65   46.0    76    0.6    16     1.4   747.5    0.00 
 109    8:40   0.68   48.0    68    0.7     8     2.3   747.5    0.00 
 109    8:50   0.73   49.2    62    1.4    61     2.9   747.6    0.00 
 109    9:00   0.81   49.9    59    1.8    56     3.5   747.6    0.00 
 109    9:10   0.74   50.9    51    2.1   202     8.6   747.6    0.00 
 109    9:20   0.56   50.2    47    3.1   222     6.7   747.7    0.00 
 109    9:30   0.57   50.3    47    3.1   198     5.6   747.7    0.00 
 109    9:40   0.69   51.1    46    2.5   224     5.5   747.8    0.00 
 109    9:50   0.47   50.5    46    3.2   209     6.5   747.8    0.00 
 109   10:00   0.43   50.3    46    2.7   215     5.0   747.8    0.00 
 109   10:10   0.42   50.3    46    3.0   200     5.7   747.7    0.00 
 109   10:20   0.35   50.3    46    3.2   201     5.7   747.6    0.00 
 109   10:30   0.36   50.0    46    2.6   204     6.2   747.5    0.00 
 109   10:40   0.73   50.7    46    3.8   199     6.2   747.3    0.00 
 109   10:50   0.89   51.7    47    3.0   230     5.3   747.0    0.00 
 109   11:00   0.82   52.2    44    2.1   274     5.5   747.0    0.00 
 109   11:10   0.66   52.1    46    2.2   217     5.2   746.8    0.00 
 109   11:20   0.68   52.6    46    3.1   163     6.7   746.7    0.00 
 109   11:30   0.81   52.4    45    4.9   188     9.8   746.6    0.00 
 109   11:40   0.57   52.4    43    4.0   203     7.2   746.7    0.00 
 109   11:50   0.68   53.5    41    1.9   157     6.1   746.6    0.00 
 109   12:00   0.52   53.5    41    3.2   201     6.1   746.4    0.00 
 109   12:10   0.52   53.6    38    1.5   331     4.0   746.3    0.00 
 109   12:20   0.50   54.3    40    1.9    30     3.3   746.1    0.00 
 109   12:30   0.35   53.8    40    1.7    45     3.9   746.3    0.00 
 109   12:40   0.20   53.2    42    1.3   348     2.9   746.4    0.00 
 109   12:50   0.15   52.2    44    0.8   101     2.5   746.3    0.00 
 109   13:00   0.09   51.6    48    2.6   127     5.4   746.2    0.00 
 109   13:10   0.07   49.3    55    4.5   128     6.1   746.3    0.00 
 109   13:20   0.05   47.6    61    3.2   120     5.1   746.4    0.00 
 109   13:30   0.03   45.4    70    3.0    85     4.2   746.5    0.00 
 109   13:40   0.02   41.1    81    4.6    61     6.1   746.6    0.01 
 109   13:50   0.02   39.2    86    2.8    58     4.4   746.8    0.04 
 109   14:00   0.03   38.7    89    0.9   297     2.4   747.0    0.03 
 109   14:10   0.06   39.4    90    2.0   316     3.0   746.9    0.02 
 109   14:20   0.13   39.5    90    2.9   311     3.8   746.8    0.02 
 109   14:30   0.17   40.2    89    2.0   322     2.7   746.7    0.01 
 109   14:40   0.17   40.8    88    2.3   318     3.3   746.7    0.01 
 109   14:50   0.12   40.8    88    1.9   329     3.0   746.7    0.00 
 109   15:00   0.15   40.9    88    2.3   329     3.0   746.6    0.00 
 109   15:10   0.16   41.0    86    2.2   328     3.4   746.6    0.00 
 109   15:20   0.19   41.1    89    3.2   334     5.6   746.6    0.00 
 109   15:30   0.21   41.1    90    3.6   339     5.2   746.5    0.00 
 109   15:40   0.20   41.1    88    3.6   350     5.2   746.5    0.00 
 109   15:50   0.18   40.9    89    2.9   311     4.1   746.4    0.00 
 109   16:00   0.17   41.0    89    2.6   329     3.8   746.5    0.00 
 109   16:10   0.14   41.2    88    2.2   350     3.7   746.5    0.00 
 109   16:20   0.13   41.2    87    1.6     3     2.4   746.5    0.00 
 109   16:30   0.12   41.3    86    1.2    59     2.5   746.4    0.00 
 109   16:40   0.09   41.2    85    1.6    35     2.5   746.5    0.00 
 109   16:50   0.08   41.3    85    1.5    36     2.5   746.5    0.00 
 109   17:00   0.07   41.4    86    1.1    17     1.5   746.6    0.00 
 109   17:10   0.06   41.6    86    0.6   297     1.3   746.5    0.00 
 109   17:20   0.05   41.2    88    1.2   279     1.5   746.4    0.00 
 109   17:30   0.04   41.1    90    0.8   264     1.2   746.4    0.00 
 109   17:40   0.02   40.9    91    0.4   218     1.2   746.4    0.00 
 109   17:50   0.02   40.9    93    0.4   165     1.1   746.5    0.00 
 109   18:00   0.01   40.9    93    0.8   218     1.8   746.5    0.00 
 109   18:10   0.01   40.7    94    0.5   139     1.0   746.5    0.00 
 109   18:20   0.01   40.6    95    1.1   159     2.2   746.5    0.00 
 109   18:30   0.00   40.2    95    1.2   179     2.1   746.6    0.00 
 109   18:40   0.00   40.3    95    2.1   218     3.4   746.6    0.00 
 109   18:50   0.00   40.8    92    2.3   236     3.7   746.7    0.00 
 109   19:00   0.00   40.7    93    1.6   236     2.1   746.7    0.00 
 109   19:10   0.00   40.3    94    0.9   111     1.6   746.8    0.00 
 109   19:20   0.00   40.0    95    1.0   176     1.6   746.8    0.00 
 109   19:30   0.00   39.9    96    0.8   208     1.4   746.9    0.00 
 109   19:40   0.00   39.7    96    0.2   246     1.1   747.0    0.00 
 109   19:50   0.00   39.5    96    0.2   312     0.7   747.1    0.00 
 109   20:00   0.00   39.4    96    0.8   195     1.3   747.1    0.00 
 109   20:10   0.00   39.3    97    0.4   313     0.9   747.2    0.00 
 109   20:20   0.00   39.2    96    0.7    20     1.0   747.2    0.00 
 109   20:30   0.00   38.9    96    0.3    78     0.8   747.2    0.00 
 109   20:40   0.00   39.0    97    0.8   296     1.9   747.3    0.00 
 109   20:50   0.00   39.5    95    0.9   288     1.7   747.4    0.00 
 109   21:00   0.00   39.5    95    0.6   314     1.1   747.4    0.00 
 109   21:10   0.00   39.5    95    0.6   323     0.9   747.4    0.00 
 109   21:20   0.00   39.1    95    0.0   323     0.5   747.4    0.00 
 109   21:30   0.00   38.5    96    0.7   114     1.1   747.2    0.00 
 109   21:40   0.00   38.2    97    0.5     7     1.1   747.1    0.00 
 109   21:50   0.00   38.1    97    0.6   310     0.9   747.1    0.00 
 109   22:00   0.00   37.2    97    0.6   164     1.1   747.2    0.00 
 109   22:10   0.00   37.3    98    0.0   165     0.3   747.2    0.00 
 109   22:20   0.00   37.1    98    0.1   256     1.0   747.1    0.00 
 109   22:30   0.00   37.4    98    0.6   152     1.0   747.0    0.00 
 109   22:40   0.00   36.7    98    0.7   168     1.7   747.0    0.00 
 109   22:50   0.00   37.6    99    1.6   224     2.5   747.0    0.00 
 109   23:00   0.00   37.3    98    0.6   178     1.0   747.0    0.00 
 109   23:10   0.00   37.0    98    0.6   266     1.5   747.1    0.00 
 109   23:20   0.00   36.1    98    1.2   348     1.8   747.2    0.00 
 109   23:30   0.00   35.1    98    0.6   191     1.7   747.3    0.00 
 109   23:40   0.00   35.4    99    1.2   198     2.0   747.3    0.00 
 109   23:50   0.00   36.0    99    1.2   236     2.5   747.3    0.00 
 110    0:00   0.00   35.9    99    0.8     6     1.4   747.3    0.00 
 110    0:10   0.00   35.3    98    1.1   138     1.8   747.3    0.00 
 110    0:20   0.00   35.3    99    0.3   210     0.8   747.3    0.00 
 110    0:30   0.00   35.4    99    0.5   198     1.4   747.2    0.00 
 110    0:40   0.00   35.4    99    1.0   205     2.4   747.2    0.00 
 110    0:50   0.00   35.8    99    1.6   211     2.5   747.1    0.00 
 110    1:00   0.00   36.1    99    1.2   225     1.7   747.0    0.00 
 110    1:10   0.00   36.3    98    1.2   207     2.2   746.8    0.00 
 110    1:20   0.00   36.2    98    1.0   326     1.7   746.8    0.00 
 110    1:30   0.00   35.8    98    0.6   353     1.3   746.7    0.00 
 110    1:40   0.00   35.8    98    0.5   268     2.2   746.6    0.00 
 110    1:50   0.00   35.7    98    0.6    18     1.6   746.6    0.00 
 110    2:00   0.00   35.4    98    0.7   159     1.7   746.6    0.00 
 110    2:10   0.00   35.6    98    0.8   136     1.4   746.5    0.00 
 110    2:20   0.00   35.2    98    0.8     4     1.5   746.4    0.00 
 110    2:30   0.00   35.1    98    0.2   299     0.9   746.4    0.00 
 110    2:40   0.00   34.5    98    0.2   222     0.7   746.4    0.00 
 110    2:50   0.00   33.8    98    0.1   159     0.7   746.4    0.00 
 110    3:00   0.00   33.4    98    0.0     0     0.0   746.5    0.00 
 110    3:10   0.00   33.3    99    0.2   189     0.8   746.5    0.00 
 110    3:20   0.00   32.4    99    0.1   217     0.7   746.5    0.00 

Return to Hidden Valley, Valles Caldera graphs page.


Western Regional Climate Center,wrcc@dri.edu